sensor_id;sensor_type;location;lat;lon;timestamp;P1;durP1;ratioP1;P2;durP2;ratioP2
22470;SDS011;11402;51.374;6.594;2023-08-06T00:01:13;9.20;;;6.03;;
22470;SDS011;11402;51.374;6.594;2023-08-06T00:03:39;8.43;;;6.35;;
22470;SDS011;11402;51.374;6.594;2023-08-06T00:06:05;7.55;;;5.55;;
22470;SDS011;11402;51.374;6.594;2023-08-06T00:08:31;8.77;;;6.63;;
22470;SDS011;11402;51.374;6.594;2023-08-06T00:10:56;9.50;;;5.80;;
22470;SDS011;11402;51.374;6.594;2023-08-06T00:13:22;8.95;;;5.68;;
22470;SDS011;11402;51.374;6.594;2023-08-06T00:15:48;8.27;;;5.47;;
22470;SDS011;11402;51.374;6.594;2023-08-06T00:18:13;12.52;;;6.10;;
22470;SDS011;11402;51.374;6.594;2023-08-06T00:20:39;11.60;;;6.07;;
22470;SDS011;11402;51.374;6.594;2023-08-06T00:23:08;8.32;;;5.63;;
22470;SDS011;11402;51.374;6.594;2023-08-06T00:25:33;8.52;;;5.50;;
22470;SDS011;11402;51.374;6.594;2023-08-06T00:27:59;11.30;;;5.70;;
22470;SDS011;11402;51.374;6.594;2023-08-06T00:30:24;8.30;;;5.65;;
22470;SDS011;11402;51.374;6.594;2023-08-06T00:32:50;7.55;;;5.25;;
22470;SDS011;11402;51.374;6.594;2023-08-06T00:35:16;8.35;;;5.50;;
22470;SDS011;11402;51.374;6.594;2023-08-06T00:37:41;8.85;;;4.97;;
22470;SDS011;11402;51.374;6.594;2023-08-06T00:40:07;8.90;;;4.70;;
22470;SDS011;11402;51.374;6.594;2023-08-06T00:42:33;5.70;;;5.05;;
22470;SDS011;11402;51.374;6.594;2023-08-06T00:44:59;8.93;;;4.85;;
22470;SDS011;11402;51.374;6.594;2023-08-06T00:47:26;12.23;;;4.93;;
22470;SDS011;11402;51.374;6.594;2023-08-06T00:49:51;6.57;;;4.72;;
22470;SDS011;11402;51.374;6.594;2023-08-06T00:52:17;4.90;;;4.35;;
22470;SDS011;11402;51.374;6.594;2023-08-06T00:54:43;7.72;;;5.18;;
22470;SDS011;11402;51.374;6.594;2023-08-06T00:57:08;9.10;;;5.22;;
22470;SDS011;11402;51.374;6.594;2023-08-06T00:59:34;9.02;;;5.10;;
22470;SDS011;11402;51.374;6.594;2023-08-06T01:02:01;6.28;;;4.80;;
22470;SDS011;11402;51.374;6.594;2023-08-06T01:04:26;6.50;;;4.82;;
22470;SDS011;11402;51.374;6.594;2023-08-06T01:06:56;8.85;;;4.60;;
22470;SDS011;11402;51.374;6.594;2023-08-06T01:12:32;8.13;;;5.20;;
22470;SDS011;11402;51.374;6.594;2023-08-06T01:15:07;9.20;;;4.72;;
22470;SDS011;11402;51.374;6.594;2023-08-06T01:17:38;7.70;;;5.38;;
22470;SDS011;11402;51.374;6.594;2023-08-06T01:20:05;8.65;;;5.07;;
22470;SDS011;11402;51.374;6.594;2023-08-06T01:22:31;8.15;;;4.78;;
22470;SDS011;11402;51.374;6.594;2023-08-06T01:24:56;8.15;;;4.70;;
22470;SDS011;11402;51.374;6.594;2023-08-06T01:27:27;7.05;;;4.60;;
22470;SDS011;11402;51.374;6.594;2023-08-06T01:30:03;6.32;;;4.50;;
22470;SDS011;11402;51.374;6.594;2023-08-06T01:32:35;6.80;;;4.40;;
22470;SDS011;11402;51.374;6.594;2023-08-06T01:35:07;10.07;;;4.35;;
22470;SDS011;11402;51.374;6.594;2023-08-06T01:37:36;7.45;;;4.40;;
22470;SDS011;11402;51.374;6.594;2023-08-06T01:40:05;6.00;;;4.35;;
22470;SDS011;11402;51.374;6.594;2023-08-06T01:42:34;7.20;;;4.40;;
22470;SDS011;11402;51.374;6.594;2023-08-06T01:45:02;8.25;;;4.40;;
22470;SDS011;11402;51.374;6.594;2023-08-06T01:47:28;10.02;;;4.00;;
22470;SDS011;11402;51.374;6.594;2023-08-06T01:49:54;7.15;;;4.28;;
22470;SDS011;11402;51.374;6.594;2023-08-06T01:52:19;6.32;;;4.07;;
22470;SDS011;11402;51.374;6.594;2023-08-06T01:54:45;6.70;;;4.22;;
22470;SDS011;11402;51.374;6.594;2023-08-06T01:57:10;7.85;;;4.78;;
22470;SDS011;11402;51.374;6.594;2023-08-06T01:59:36;7.93;;;4.47;;
22470;SDS011;11402;51.374;6.594;2023-08-06T02:02:02;5.25;;;4.40;;
22470;SDS011;11402;51.374;6.594;2023-08-06T02:04:27;6.22;;;4.07;;
22470;SDS011;11402;51.374;6.594;2023-08-06T02:06:53;6.15;;;4.25;;
22470;SDS011;11402;51.374;6.594;2023-08-06T02:09:18;9.43;;;4.20;;
22470;SDS011;11402;51.374;6.594;2023-08-06T02:11:44;5.28;;;4.00;;
22470;SDS011;11402;51.374;6.594;2023-08-06T02:14:10;7.40;;;4.50;;
22470;SDS011;11402;51.374;6.594;2023-08-06T02:16:35;5.68;;;4.32;;
22470;SDS011;11402;51.374;6.594;2023-08-06T02:19:01;9.40;;;4.22;;
22470;SDS011;11402;51.374;6.594;2023-08-06T02:21:26;6.00;;;4.10;;
22470;SDS011;11402;51.374;6.594;2023-08-06T02:23:52;7.13;;;4.53;;
22470;SDS011;11402;51.374;6.594;2023-08-06T02:26:17;6.00;;;4.32;;
22470;SDS011;11402;51.374;6.594;2023-08-06T02:28:43;9.02;;;4.15;;
22470;SDS011;11402;51.374;6.594;2023-08-06T02:31:08;7.07;;;4.10;;
22470;SDS011;11402;51.374;6.594;2023-08-06T02:33:34;6.70;;;4.03;;
22470;SDS011;11402;51.374;6.594;2023-08-06T02:36:03;6.90;;;4.30;;
22470;SDS011;11402;51.374;6.594;2023-08-06T02:38:29;5.78;;;4.00;;
22470;SDS011;11402;51.374;6.594;2023-08-06T02:40:56;7.25;;;3.40;;
22470;SDS011;11402;51.374;6.594;2023-08-06T02:43:21;6.03;;;3.90;;
22470;SDS011;11402;51.374;6.594;2023-08-06T02:45:47;6.85;;;4.07;;
22470;SDS011;11402;51.374;6.594;2023-08-06T02:48:12;7.57;;;3.72;;
22470;SDS011;11402;51.374;6.594;2023-08-06T02:50:38;4.90;;;3.58;;
22470;SDS011;11402;51.374;6.594;2023-08-06T02:53:08;5.28;;;3.42;;
22470;SDS011;11402;51.374;6.594;2023-08-06T02:55:33;5.47;;;3.97;;
22470;SDS011;11402;51.374;6.594;2023-08-06T02:58:00;5.80;;;3.53;;
22470;SDS011;11402;51.374;6.594;2023-08-06T03:00:26;6.60;;;3.28;;
22470;SDS011;11402;51.374;6.594;2023-08-06T03:02:52;6.07;;;3.92;;
22470;SDS011;11402;51.374;6.594;2023-08-06T03:05:18;3.70;;;3.13;;
22470;SDS011;11402;51.374;6.594;2023-08-06T03:07:44;4.93;;;3.28;;
22470;SDS011;11402;51.374;6.594;2023-08-06T03:10:09;3.75;;;3.28;;
22470;SDS011;11402;51.374;6.594;2023-08-06T03:12:35;4.95;;;3.38;;
22470;SDS011;11402;51.374;6.594;2023-08-06T03:15:00;6.50;;;3.40;;
22470;SDS011;11402;51.374;6.594;2023-08-06T03:17:26;6.28;;;3.85;;
22470;SDS011;11402;51.374;6.594;2023-08-06T03:19:51;5.05;;;3.33;;
22470;SDS011;11402;51.374;6.594;2023-08-06T03:22:17;6.45;;;3.60;;
22470;SDS011;11402;51.374;6.594;2023-08-06T03:24:43;7.43;;;3.65;;
22470;SDS011;11402;51.374;6.594;2023-08-06T03:27:08;6.25;;;3.22;;
22470;SDS011;11402;51.374;6.594;2023-08-06T03:29:34;6.03;;;3.50;;
22470;SDS011;11402;51.374;6.594;2023-08-06T03:31:59;10.20;;;3.90;;
22470;SDS011;11402;51.374;6.594;2023-08-06T03:34:25;8.52;;;3.22;;
22470;SDS011;11402;51.374;6.594;2023-08-06T03:36:54;6.38;;;3.60;;
22470;SDS011;11402;51.374;6.594;2023-08-06T03:39:19;4.13;;;3.17;;
22470;SDS011;11402;51.374;6.594;2023-08-06T03:41:45;4.38;;;3.45;;
22470;SDS011;11402;51.374;6.594;2023-08-06T03:44:10;5.80;;;3.28;;
22470;SDS011;11402;51.374;6.594;2023-08-06T03:46:36;5.63;;;3.47;;
22470;SDS011;11402;51.374;6.594;2023-08-06T03:49:01;7.05;;;3.85;;
22470;SDS011;11402;51.374;6.594;2023-08-06T03:51:27;5.20;;;3.10;;
22470;SDS011;11402;51.374;6.594;2023-08-06T03:53:53;4.75;;;3.30;;
22470;SDS011;11402;51.374;6.594;2023-08-06T03:56:18;5.93;;;3.83;;
22470;SDS011;11402;51.374;6.594;2023-08-06T03:58:44;5.72;;;3.00;;
22470;SDS011;11402;51.374;6.594;2023-08-06T04:01:10;8.43;;;3.55;;
22470;SDS011;11402;51.374;6.594;2023-08-06T04:03:35;5.28;;;3.28;;
22470;SDS011;11402;51.374;6.594;2023-08-06T04:06:03;5.13;;;3.15;;
22470;SDS011;11402;51.374;6.594;2023-08-06T04:08:29;3.28;;;2.97;;
22470;SDS011;11402;51.374;6.594;2023-08-06T04:10:55;5.97;;;3.78;;
22470;SDS011;11402;51.374;6.594;2023-08-06T04:13:20;5.82;;;3.90;;
22470;SDS011;11402;51.374;6.594;2023-08-06T04:15:46;5.13;;;3.40;;
22470;SDS011;11402;51.374;6.594;2023-08-06T04:18:12;4.85;;;3.25;;
22470;SDS011;11402;51.374;6.594;2023-08-06T04:20:44;6.25;;;3.60;;
22470;SDS011;11402;51.374;6.594;2023-08-06T04:23:11;5.10;;;3.75;;
22470;SDS011;11402;51.374;6.594;2023-08-06T04:25:37;9.82;;;4.53;;
22470;SDS011;11402;51.374;6.594;2023-08-06T04:28:03;5.93;;;4.88;;
22470;SDS011;11402;51.374;6.594;2023-08-06T04:30:29;7.53;;;4.40;;
22470;SDS011;11402;51.374;6.594;2023-08-06T04:32:56;7.53;;;4.40;;
22470;SDS011;11402;51.374;6.594;2023-08-06T04:35:23;9.32;;;4.80;;
22470;SDS011;11402;51.374;6.594;2023-08-06T04:37:49;8.63;;;4.45;;
22470;SDS011;11402;51.374;6.594;2023-08-06T04:40:14;6.38;;;4.45;;
22470;SDS011;11402;51.374;6.594;2023-08-06T04:42:40;8.85;;;4.20;;
22470;SDS011;11402;51.374;6.594;2023-08-06T04:45:06;6.38;;;4.15;;
22470;SDS011;11402;51.374;6.594;2023-08-06T04:47:32;6.10;;;4.18;;
22470;SDS011;11402;51.374;6.594;2023-08-06T04:49:57;7.00;;;4.00;;
22470;SDS011;11402;51.374;6.594;2023-08-06T04:52:23;5.35;;;3.90;;
22470;SDS011;11402;51.374;6.594;2023-08-06T04:54:52;6.25;;;3.88;;
22470;SDS011;11402;51.374;6.594;2023-08-06T04:57:18;6.25;;;3.75;;
22470;SDS011;11402;51.374;6.594;2023-08-06T04:59:43;5.85;;;3.85;;
22470;SDS011;11402;51.374;6.594;2023-08-06T05:02:09;8.77;;;4.03;;
22470;SDS011;11402;51.374;6.594;2023-08-06T05:04:34;8.65;;;3.92;;
22470;SDS011;11402;51.374;6.594;2023-08-06T05:07:00;6.00;;;4.00;;
22470;SDS011;11402;51.374;6.594;2023-08-06T05:09:25;7.20;;;4.50;;
22470;SDS011;11402;51.374;6.594;2023-08-06T05:11:51;6.00;;;4.13;;
22470;SDS011;11402;51.374;6.594;2023-08-06T05:14:16;9.02;;;4.40;;
22470;SDS011;11402;51.374;6.594;2023-08-06T05:16:42;5.55;;;3.70;;
22470;SDS011;11402;51.374;6.594;2023-08-06T05:19:07;6.18;;;3.95;;
22470;SDS011;11402;51.374;6.594;2023-08-06T05:21:33;5.90;;;3.80;;
22470;SDS011;11402;51.374;6.594;2023-08-06T05:23:59;6.03;;;3.67;;
22470;SDS011;11402;51.374;6.594;2023-08-06T05:26:24;8.48;;;4.05;;
22470;SDS011;11402;51.374;6.594;2023-08-06T05:28:50;7.03;;;3.80;;
22470;SDS011;11402;51.374;6.594;2023-08-06T05:31:15;5.60;;;3.97;;
22470;SDS011;11402;51.374;6.594;2023-08-06T05:33:41;8.50;;;4.40;;
22470;SDS011;11402;51.374;6.594;2023-08-06T05:36:06;7.85;;;4.22;;
22470;SDS011;11402;51.374;6.594;2023-08-06T05:38:32;7.22;;;4.70;;
22470;SDS011;11402;51.374;6.594;2023-08-06T05:40:58;7.32;;;4.72;;
22470;SDS011;11402;51.374;6.594;2023-08-06T05:43:23;7.32;;;4.60;;
22470;SDS011;11402;51.374;6.594;2023-08-06T05:45:49;6.22;;;3.90;;
22470;SDS011;11402;51.374;6.594;2023-08-06T05:48:15;6.22;;;4.13;;
22470;SDS011;11402;51.374;6.594;2023-08-06T05:50:41;7.00;;;4.45;;
22470;SDS011;11402;51.374;6.594;2023-08-06T05:53:06;6.00;;;4.18;;
22470;SDS011;11402;51.374;6.594;2023-08-06T05:55:32;7.95;;;4.40;;
22470;SDS011;11402;51.374;6.594;2023-08-06T05:57:58;7.00;;;3.88;;
22470;SDS011;11402;51.374;6.594;2023-08-06T06:00:24;7.22;;;3.47;;
22470;SDS011;11402;51.374;6.594;2023-08-06T06:02:49;4.07;;;2.92;;
22470;SDS011;11402;51.374;6.594;2023-08-06T06:05:15;5.53;;;2.95;;
22470;SDS011;11402;51.374;6.594;2023-08-06T06:07:41;7.18;;;3.22;;
22470;SDS011;11402;51.374;6.594;2023-08-06T06:10:07;5.07;;;3.22;;
22470;SDS011;11402;51.374;6.594;2023-08-06T06:12:32;4.90;;;3.08;;
22470;SDS011;11402;51.374;6.594;2023-08-06T06:14:58;6.57;;;3.38;;
22470;SDS011;11402;51.374;6.594;2023-08-06T06:17:25;6.47;;;3.05;;
22470;SDS011;11402;51.374;6.594;2023-08-06T06:19:51;4.75;;;2.72;;
22470;SDS011;11402;51.374;6.594;2023-08-06T06:22:17;3.35;;;2.30;;
22470;SDS011;11402;51.374;6.594;2023-08-06T06:24:43;2.67;;;2.13;;
22470;SDS011;11402;51.374;6.594;2023-08-06T06:27:08;6.68;;;2.30;;
22470;SDS011;11402;51.374;6.594;2023-08-06T06:29:34;5.18;;;2.20;;
22470;SDS011;11402;51.374;6.594;2023-08-06T06:31:59;3.35;;;2.00;;
22470;SDS011;11402;51.374;6.594;2023-08-06T06:34:25;4.90;;;2.42;;
22470;SDS011;11402;51.374;6.594;2023-08-06T06:36:50;5.05;;;2.13;;
22470;SDS011;11402;51.374;6.594;2023-08-06T06:39:17;3.38;;;2.03;;
22470;SDS011;11402;51.374;6.594;2023-08-06T06:41:43;3.55;;;2.08;;
22470;SDS011;11402;51.374;6.594;2023-08-06T06:44:09;3.08;;;1.95;;
22470;SDS011;11402;51.374;6.594;2023-08-06T06:46:35;5.18;;;2.30;;
22470;SDS011;11402;51.374;6.594;2023-08-06T06:49:00;5.38;;;2.20;;
22470;SDS011;11402;51.374;6.594;2023-08-06T06:51:26;5.22;;;2.50;;
22470;SDS011;11402;51.374;6.594;2023-08-06T06:53:52;6.38;;;2.67;;
22470;SDS011;11402;51.374;6.594;2023-08-06T06:56:17;6.05;;;2.80;;
22470;SDS011;11402;51.374;6.594;2023-08-06T06:58:43;5.05;;;2.97;;
22470;SDS011;11402;51.374;6.594;2023-08-06T07:01:09;3.67;;;2.38;;
22470;SDS011;11402;51.374;6.594;2023-08-06T07:03:36;5.10;;;2.25;;
22470;SDS011;11402;51.374;6.594;2023-08-06T07:06:02;6.93;;;2.92;;
22470;SDS011;11402;51.374;6.594;2023-08-06T07:08:28;4.28;;;2.78;;
22470;SDS011;11402;51.374;6.594;2023-08-06T07:11:03;4.45;;;2.90;;
22470;SDS011;11402;51.374;6.594;2023-08-06T07:13:30;4.75;;;3.15;;
22470;SDS011;11402;51.374;6.594;2023-08-06T07:15:56;4.85;;;3.35;;
22470;SDS011;11402;51.374;6.594;2023-08-06T07:18:22;4.18;;;3.17;;
22470;SDS011;11402;51.374;6.594;2023-08-06T07:20:51;4.82;;;3.30;;
22470;SDS011;11402;51.374;6.594;2023-08-06T07:23:19;5.07;;;3.20;;
22470;SDS011;11402;51.374;6.594;2023-08-06T07:25:49;4.65;;;3.28;;
22470;SDS011;11402;51.374;6.594;2023-08-06T07:28:15;8.20;;;3.90;;
22470;SDS011;11402;51.374;6.594;2023-08-06T07:30:41;6.03;;;3.30;;
22470;SDS011;11402;51.374;6.594;2023-08-06T07:33:08;5.85;;;3.70;;
22470;SDS011;11402;51.374;6.594;2023-08-06T07:35:34;7.75;;;4.05;;
22470;SDS011;11402;51.374;6.594;2023-08-06T07:38:00;6.63;;;3.88;;
22470;SDS011;11402;51.374;6.594;2023-08-06T07:40:26;5.95;;;4.10;;
22470;SDS011;11402;51.374;6.594;2023-08-06T07:42:52;5.50;;;3.70;;
22470;SDS011;11402;51.374;6.594;2023-08-06T07:45:18;4.47;;;4.00;;
22470;SDS011;11402;51.374;6.594;2023-08-06T07:47:43;4.60;;;3.60;;
22470;SDS011;11402;51.374;6.594;2023-08-06T07:50:09;6.75;;;4.10;;
22470;SDS011;11402;51.374;6.594;2023-08-06T07:52:35;5.72;;;3.10;;
22470;SDS011;11402;51.374;6.594;2023-08-06T07:55:01;4.15;;;2.83;;
22470;SDS011;11402;51.374;6.594;2023-08-06T07:57:29;4.45;;;2.80;;
22470;SDS011;11402;51.374;6.594;2023-08-06T07:59:55;6.00;;;2.78;;
22470;SDS011;11402;51.374;6.594;2023-08-06T08:02:21;5.18;;;2.63;;
22470;SDS011;11402;51.374;6.594;2023-08-06T08:04:47;4.65;;;2.60;;
22470;SDS011;11402;51.374;6.594;2023-08-06T08:07:13;7.07;;;2.67;;
22470;SDS011;11402;51.374;6.594;2023-08-06T08:09:39;4.90;;;2.70;;
22470;SDS011;11402;51.374;6.594;2023-08-06T08:12:05;4.63;;;2.78;;
22470;SDS011;11402;51.374;6.594;2023-08-06T08:14:31;4.18;;;2.70;;
22470;SDS011;11402;51.374;6.594;2023-08-06T08:17:00;3.75;;;3.10;;
22470;SDS011;11402;51.374;6.594;2023-08-06T08:19:27;5.28;;;2.85;;
22470;SDS011;11402;51.374;6.594;2023-08-06T08:21:53;4.32;;;3.00;;
22470;SDS011;11402;51.374;6.594;2023-08-06T08:24:19;5.75;;;3.40;;
22470;SDS011;11402;51.374;6.594;2023-08-06T08:26:45;9.30;;;3.53;;
22470;SDS011;11402;51.374;6.594;2023-08-06T08:29:10;3.55;;;3.17;;
22470;SDS011;11402;51.374;6.594;2023-08-06T08:31:36;8.45;;;5.72;;
22470;SDS011;11402;51.374;6.594;2023-08-06T08:34:04;15.05;;;11.73;;
22470;SDS011;11402;51.374;6.594;2023-08-06T08:36:30;4.68;;;2.90;;
22470;SDS011;11402;51.374;6.594;2023-08-06T08:38:56;7.30;;;2.70;;
22470;SDS011;11402;51.374;6.594;2023-08-06T08:41:22;5.10;;;2.33;;
22470;SDS011;11402;51.374;6.594;2023-08-06T08:43:49;7.85;;;2.50;;
22470;SDS011;11402;51.374;6.594;2023-08-06T08:46:17;4.32;;;2.28;;
22470;SDS011;11402;51.374;6.594;2023-08-06T08:48:44;5.53;;;2.40;;
22470;SDS011;11402;51.374;6.594;2023-08-06T08:51:11;5.20;;;1.85;;
22470;SDS011;11402;51.374;6.594;2023-08-06T08:53:37;3.50;;;1.50;;
22470;SDS011;11402;51.374;6.594;2023-08-06T08:56:04;5.82;;;1.85;;
22470;SDS011;11402;51.374;6.594;2023-08-06T08:58:30;5.03;;;1.83;;
22470;SDS011;11402;51.374;6.594;2023-08-06T09:00:56;2.97;;;1.50;;
22470;SDS011;11402;51.374;6.594;2023-08-06T09:03:23;6.57;;;2.10;;
22470;SDS011;11402;51.374;6.594;2023-08-06T09:05:50;6.55;;;1.65;;
22470;SDS011;11402;51.374;6.594;2023-08-06T09:08:18;5.63;;;1.60;;
22470;SDS011;11402;51.374;6.594;2023-08-06T09:10:49;3.90;;;1.40;;
22470;SDS011;11402;51.374;6.594;2023-08-06T09:13:17;5.82;;;1.75;;
22470;SDS011;11402;51.374;6.594;2023-08-06T09:15:42;4.35;;;1.67;;
22470;SDS011;11402;51.374;6.594;2023-08-06T09:18:12;5.22;;;1.77;;
22470;SDS011;11402;51.374;6.594;2023-08-06T09:20:40;8.07;;;1.90;;
22470;SDS011;11402;51.374;6.594;2023-08-06T09:23:09;4.45;;;1.58;;
22470;SDS011;11402;51.374;6.594;2023-08-06T09:25:37;5.88;;;1.95;;
22470;SDS011;11402;51.374;6.594;2023-08-06T09:28:05;4.10;;;1.80;;
22470;SDS011;11402;51.374;6.594;2023-08-06T09:30:31;4.85;;;2.10;;
22470;SDS011;11402;51.374;6.594;2023-08-06T09:32:58;5.70;;;2.42;;
22470;SDS011;11402;51.374;6.594;2023-08-06T09:35:23;7.13;;;2.25;;
22470;SDS011;11402;51.374;6.594;2023-08-06T09:37:49;6.20;;;2.28;;
22470;SDS011;11402;51.374;6.594;2023-08-06T09:40:24;3.85;;;2.53;;
22470;SDS011;11402;51.374;6.594;2023-08-06T09:42:54;6.18;;;2.78;;
22470;SDS011;11402;51.374;6.594;2023-08-06T09:45:20;4.45;;;2.47;;
22470;SDS011;11402;51.374;6.594;2023-08-06T09:47:49;4.65;;;2.40;;
22470;SDS011;11402;51.374;6.594;2023-08-06T09:50:18;9.23;;;3.10;;
22470;SDS011;11402;51.374;6.594;2023-08-06T09:52:46;9.07;;;5.10;;
22470;SDS011;11402;51.374;6.594;2023-08-06T09:55:12;8.02;;;5.20;;
22470;SDS011;11402;51.374;6.594;2023-08-06T09:57:39;8.00;;;4.22;;
22470;SDS011;11402;51.374;6.594;2023-08-06T10:00:07;7.68;;;4.80;;
22470;SDS011;11402;51.374;6.594;2023-08-06T10:02:35;8.18;;;4.13;;
22470;SDS011;11402;51.374;6.594;2023-08-06T10:05:04;7.13;;;3.53;;
22470;SDS011;11402;51.374;6.594;2023-08-06T10:07:30;7.40;;;3.03;;
22470;SDS011;11402;51.374;6.594;2023-08-06T10:09:56;4.53;;;2.80;;
22470;SDS011;11402;51.374;6.594;2023-08-06T10:12:22;3.83;;;2.47;;
22470;SDS011;11402;51.374;6.594;2023-08-06T10:14:51;5.35;;;2.75;;
22470;SDS011;11402;51.374;6.594;2023-08-06T10:17:20;3.83;;;2.58;;
22470;SDS011;11402;51.374;6.594;2023-08-06T10:19:48;4.60;;;2.45;;
22470;SDS011;11402;51.374;6.594;2023-08-06T10:22:16;4.20;;;2.13;;
22470;SDS011;11402;51.374;6.594;2023-08-06T10:27:14;2.08;;;1.70;;
22470;SDS011;11402;51.374;6.594;2023-08-06T10:29:48;1.30;;;1.15;;
22470;SDS011;11402;51.374;6.594;2023-08-06T10:32:16;1.20;;;1.10;;
22470;SDS011;11402;51.374;6.594;2023-08-06T10:34:58;1.30;;;1.00;;
22470;SDS011;11402;51.374;6.594;2023-08-06T10:37:37;2.30;;;1.10;;
22470;SDS011;11402;51.374;6.594;2023-08-06T10:40:03;3.03;;;1.05;;
22470;SDS011;11402;51.374;6.594;2023-08-06T10:42:32;1.23;;;1.10;;
22470;SDS011;11402;51.374;6.594;2023-08-06T10:47:59;1.63;;;1.40;;
22470;SDS011;11402;51.374;6.594;2023-08-06T10:50:25;2.92;;;1.40;;
22470;SDS011;11402;51.374;6.594;2023-08-06T10:52:50;2.28;;;1.50;;
22470;SDS011;11402;51.374;6.594;2023-08-06T10:55:23;2.03;;;1.70;;
22470;SDS011;11402;51.374;6.594;2023-08-06T11:00:16;3.20;;;2.20;;
22470;SDS011;11402;51.374;6.594;2023-08-06T11:02:41;3.47;;;2.22;;
22470;SDS011;11402;51.374;6.594;2023-08-06T11:05:07;3.78;;;2.50;;
22470;SDS011;11402;51.374;6.594;2023-08-06T11:07:37;3.00;;;2.70;;
22470;SDS011;11402;51.374;6.594;2023-08-06T11:10:07;4.57;;;3.33;;
22470;SDS011;11402;51.374;6.594;2023-08-06T11:12:33;5.10;;;3.60;;
22470;SDS011;11402;51.374;6.594;2023-08-06T11:15:00;3.80;;;3.50;;
22470;SDS011;11402;51.374;6.594;2023-08-06T11:17:31;4.75;;;4.18;;
22470;SDS011;11402;51.374;6.594;2023-08-06T11:20:03;6.43;;;4.30;;
22470;SDS011;11402;51.374;6.594;2023-08-06T11:22:30;6.57;;;4.07;;
22470;SDS011;11402;51.374;6.594;2023-08-06T11:24:56;5.30;;;4.25;;
22470;SDS011;11402;51.374;6.594;2023-08-06T11:27:22;7.10;;;4.60;;
22470;SDS011;11402;51.374;6.594;2023-08-06T11:29:48;6.05;;;4.78;;
22470;SDS011;11402;51.374;6.594;2023-08-06T11:32:13;4.88;;;4.38;;
22470;SDS011;11402;51.374;6.594;2023-08-06T11:34:39;5.13;;;4.65;;
22470;SDS011;11402;51.374;6.594;2023-08-06T11:37:06;6.68;;;4.80;;
22470;SDS011;11402;51.374;6.594;2023-08-06T11:39:33;7.18;;;5.10;;
22470;SDS011;11402;51.374;6.594;2023-08-06T11:41:59;6.55;;;4.70;;
22470;SDS011;11402;51.374;6.594;2023-08-06T11:44:29;6.43;;;5.07;;
22470;SDS011;11402;51.374;6.594;2023-08-06T11:46:59;6.90;;;5.45;;
22470;SDS011;11402;51.374;6.594;2023-08-06T11:52:19;5.53;;;3.50;;
22470;SDS011;11402;51.374;6.594;2023-08-06T11:55:07;4.78;;;3.53;;
22470;SDS011;11402;51.374;6.594;2023-08-06T11:57:35;6.15;;;4.07;;
22470;SDS011;11402;51.374;6.594;2023-08-06T12:00:02;4.35;;;3.47;;
22470;SDS011;11402;51.374;6.594;2023-08-06T12:02:33;3.63;;;3.10;;
22470;SDS011;11402;51.374;6.594;2023-08-06T12:07:46;4.88;;;3.85;;
22470;SDS011;11402;51.374;6.594;2023-08-06T12:10:14;3.97;;;3.58;;
22470;SDS011;11402;51.374;6.594;2023-08-06T12:12:40;4.45;;;3.63;;
22470;SDS011;11402;51.374;6.594;2023-08-06T12:15:07;9.60;;;8.80;;
22470;SDS011;11402;51.374;6.594;2023-08-06T12:17:33;4.40;;;3.97;;
22470;SDS011;11402;51.374;6.594;2023-08-06T12:19:59;5.32;;;3.58;;
22470;SDS011;11402;51.374;6.594;2023-08-06T12:22:25;5.00;;;3.58;;
22470;SDS011;11402;51.374;6.594;2023-08-06T12:24:51;4.90;;;3.60;;
22470;SDS011;11402;51.374;6.594;2023-08-06T12:27:16;9.40;;;4.07;;
22470;SDS011;11402;51.374;6.594;2023-08-06T12:29:46;5.85;;;3.55;;
22470;SDS011;11402;51.374;6.594;2023-08-06T12:32:13;4.43;;;3.30;;
22470;SDS011;11402;51.374;6.594;2023-08-06T12:34:39;6.13;;;3.90;;
22470;SDS011;11402;51.374;6.594;2023-08-06T12:37:06;7.00;;;4.00;;
22470;SDS011;11402;51.374;6.594;2023-08-06T12:39:32;4.93;;;3.78;;
22470;SDS011;11402;51.374;6.594;2023-08-06T12:42:02;6.13;;;3.67;;
22470;SDS011;11402;51.374;6.594;2023-08-06T12:44:28;4.47;;;3.45;;
22470;SDS011;11402;51.374;6.594;2023-08-06T12:46:54;11.32;;;3.72;;
22470;SDS011;11402;51.374;6.594;2023-08-06T12:49:19;5.13;;;3.65;;
22470;SDS011;11402;51.374;6.594;2023-08-06T12:51:49;5.05;;;3.38;;
22470;SDS011;11402;51.374;6.594;2023-08-06T12:54:18;4.78;;;3.20;;
22470;SDS011;11402;51.374;6.594;2023-08-06T12:56:47;4.80;;;3.53;;
22470;SDS011;11402;51.374;6.594;2023-08-06T12:59:13;4.03;;;3.22;;
22470;SDS011;11402;51.374;6.594;2023-08-06T13:01:40;5.20;;;3.38;;
22470;SDS011;11402;51.374;6.594;2023-08-06T13:04:06;3.80;;;2.92;;
22470;SDS011;11402;51.374;6.594;2023-08-06T13:06:32;4.20;;;3.10;;
22470;SDS011;11402;51.374;6.594;2023-08-06T13:09:08;4.13;;;3.38;;
22470;SDS011;11402;51.374;6.594;2023-08-06T13:11:37;5.32;;;3.92;;
22470;SDS011;11402;51.374;6.594;2023-08-06T13:14:13;6.78;;;3.58;;
22470;SDS011;11402;51.374;6.594;2023-08-06T13:16:40;7.15;;;3.60;;
22470;SDS011;11402;51.374;6.594;2023-08-06T13:19:07;5.50;;;3.20;;
22470;SDS011;11402;51.374;6.594;2023-08-06T13:21:33;7.72;;;3.42;;
22470;SDS011;11402;51.374;6.594;2023-08-06T13:24:01;5.57;;;3.20;;
22470;SDS011;11402;51.374;6.594;2023-08-06T13:26:27;6.68;;;4.00;;
22470;SDS011;11402;51.374;6.594;2023-08-06T13:28:54;8.82;;;4.20;;
22470;SDS011;11402;51.374;6.594;2023-08-06T13:31:21;6.88;;;4.20;;
22470;SDS011;11402;51.374;6.594;2023-08-06T13:33:47;8.05;;;4.22;;
22470;SDS011;11402;51.374;6.594;2023-08-06T13:36:14;9.20;;;4.30;;
22470;SDS011;11402;51.374;6.594;2023-08-06T13:38:41;5.40;;;3.70;;
22470;SDS011;11402;51.374;6.594;2023-08-06T13:41:06;12.48;;;4.20;;
22470;SDS011;11402;51.374;6.594;2023-08-06T13:43:32;6.90;;;4.25;;
22470;SDS011;11402;51.374;6.594;2023-08-06T13:45:57;9.35;;;3.85;;
22470;SDS011;11402;51.374;6.594;2023-08-06T13:48:23;6.50;;;3.83;;
22470;SDS011;11402;51.374;6.594;2023-08-06T13:50:49;6.80;;;3.47;;
22470;SDS011;11402;51.374;6.594;2023-08-06T13:53:15;6.15;;;3.65;;
22470;SDS011;11402;51.374;6.594;2023-08-06T13:55:40;4.85;;;3.63;;
22470;SDS011;11402;51.374;6.594;2023-08-06T13:58:06;5.93;;;3.72;;
22470;SDS011;11402;51.374;6.594;2023-08-06T14:00:31;6.57;;;3.85;;
22470;SDS011;11402;51.374;6.594;2023-08-06T14:02:57;8.57;;;4.15;;
22470;SDS011;11402;51.374;6.594;2023-08-06T14:05:23;6.47;;;3.72;;
22470;SDS011;11402;51.374;6.594;2023-08-06T14:07:48;8.50;;;3.75;;
22470;SDS011;11402;51.374;6.594;2023-08-06T14:10:14;6.22;;;3.53;;
22470;SDS011;11402;51.374;6.594;2023-08-06T14:12:40;7.47;;;4.38;;
22470;SDS011;11402;51.374;6.594;2023-08-06T14:15:05;7.72;;;3.70;;
22470;SDS011;11402;51.374;6.594;2023-08-06T14:17:31;7.35;;;3.40;;
22470;SDS011;11402;51.374;6.594;2023-08-06T14:19:57;6.30;;;3.88;;
22470;SDS011;11402;51.374;6.594;2023-08-06T14:22:22;6.50;;;3.70;;
22470;SDS011;11402;51.374;6.594;2023-08-06T14:24:48;8.15;;;4.15;;
22470;SDS011;11402;51.374;6.594;2023-08-06T14:27:13;7.50;;;4.15;;
22470;SDS011;11402;51.374;6.594;2023-08-06T14:29:39;6.63;;;3.25;;
22470;SDS011;11402;51.374;6.594;2023-08-06T14:32:05;6.70;;;3.83;;
22470;SDS011;11402;51.374;6.594;2023-08-06T14:34:31;8.27;;;3.72;;
22470;SDS011;11402;51.374;6.594;2023-08-06T14:36:56;6.20;;;3.85;;
22470;SDS011;11402;51.374;6.594;2023-08-06T14:39:22;7.95;;;3.85;;
22470;SDS011;11402;51.374;6.594;2023-08-06T14:41:47;8.30;;;3.80;;
22470;SDS011;11402;51.374;6.594;2023-08-06T14:44:13;7.88;;;3.90;;
22470;SDS011;11402;51.374;6.594;2023-08-06T14:46:39;4.93;;;3.35;;
22470;SDS011;11402;51.374;6.594;2023-08-06T14:49:04;7.72;;;4.07;;
22470;SDS011;11402;51.374;6.594;2023-08-06T14:51:30;8.93;;;3.83;;
22470;SDS011;11402;51.374;6.594;2023-08-06T14:53:56;5.35;;;3.28;;
22470;SDS011;11402;51.374;6.594;2023-08-06T14:56:21;8.80;;;3.22;;
22470;SDS011;11402;51.374;6.594;2023-08-06T14:58:48;6.88;;;2.97;;
22470;SDS011;11402;51.374;6.594;2023-08-06T15:01:13;7.05;;;3.13;;